Time;durP1;ratioP1;P1;durP2;ratioP2;P2;SDS_P1;SDS_P2;PMS_P1;PMS_P2;Temp;Humidity;BMP_temperature;BMP_pressure;BME280_temperature;BME280_humidity;BME280_pressure;Samples;Min_cycle;Max_cycle;Signal;HPM_P1;HPM_P2
2022/01/27 00:00:34;;;;;;;3.69;3.23;;;;;;;18.39;43.89;101873.97;;;;-52
2022/01/27 00:02:55;;;;;;;3.25;2.95;;;;;;;18.37;43.83;101873.02;;;;-53
2022/01/27 00:05:48;;;;;;;3.25;2.95;;;;;;;18.35;43.85;101873.50;;;;-53
2022/01/27 00:08:50;;;;;;;3.11;2.81;;;;;;;18.33;43.88;101881.64;;;;-53
2022/01/27 00:11:47;;;;;;;3.76;3.31;;;;;;;18.32;43.90;101890.18;;;;-53
2022/01/27 00:14:52;;;;;;;3.31;3.01;;;;;;;18.30;43.88;101891.09;;;;-52
2022/01/27 00:17:48;;;;;;;3.07;2.79;;;;;;;18.27;43.90;101885.33;;;;-52
2022/01/27 00:20:44;;;;;;;3.33;3.01;;;;;;;18.25;43.92;101884.12;;;;-53
2022/01/27 00:23:45;;;;;;;3.33;3.03;;;;;;;18.24;43.87;101889.50;;;;-51
2022/01/27 00:26:44;;;;;;;3.27;2.95;;;;;;;18.22;43.90;101890.11;;;;-51
2022/01/27 00:29:44;;;;;;;3.72;2.97;;;;;;;18.21;43.93;101889.41;;;;-51
2022/01/27 00:32:45;;;;;;;3.84;2.91;;;;;;;18.18;43.95;101886.66;;;;-53
2022/01/27 00:35:44;;;;;;;3.37;3.07;;;;;;;18.16;43.96;101883.75;;;;-52
2022/01/27 00:38:45;;;;;;;3.17;2.89;;;;;;;18.15;43.95;101879.47;;;;-52
2022/01/27 00:41:44;;;;;;;2.99;2.69;;;;;;;18.13;43.99;101873.80;;;;-52
2022/01/27 00:44:44;;;;;;;3.42;3.11;;;;;;;18.11;43.95;101869.27;;;;-52
2022/01/27 00:47:45;;;;;;;3.09;2.80;;;;;;;18.11;43.96;101870.08;;;;-52
2022/01/27 00:50:46;;;;;;;2.97;2.71;;;;;;;18.08;43.94;101867.95;;;;-52
2022/01/27 00:53:50;;;;;;;3.45;2.83;;;;;;;18.07;44.03;101873.66;;;;-53
2022/01/27 00:56:50;;;;;;;3.11;2.81;;;;;;;18.04;44.00;101871.64;;;;-53
2022/01/27 00:59:53;;;;;;;3.26;2.96;;;;;;;18.03;43.94;101877.17;;;;-52
2022/01/27 01:02:50;;;;;;;3.17;2.87;;;;;;;18.01;43.95;101879.45;;;;-51
2022/01/27 01:06:03;;;;;;;3.30;3.00;;;;;;;18.00;44.02;101881.95;;;;-51
2022/01/27 01:09:44;;;;;;;3.07;2.77;;;;;;;17.97;44.01;101875.30;;;;-50
2022/01/27 01:14:51;;;;;;;3.09;2.77;;;;;;;17.94;44.04;101871.52;;;;-51
2022/01/27 01:18:02;;;;;;;3.27;2.97;;;;;;;17.92;44.01;101866.19;;;;-51
2022/01/27 01:21:03;;;;;;;3.21;2.79;;;;;;;17.91;44.07;101865.84;;;;-51
2022/01/27 01:30:05;;;;;;;3.22;2.79;;;;;;;17.87;44.07;101840.97;;;;-50
2022/01/27 01:32:49;;;;;;;2.89;2.69;;;;;;;17.85;44.06;101837.16;;;;-50
2022/01/27 01:35:50;;;;;;;2.87;2.62;;;;;;;17.83;44.17;101832.63;;;;-52
2022/01/27 01:38:44;;;;;;;2.91;2.71;;;;;;;17.82;44.16;101832.05;;;;-53
2022/01/27 01:41:44;;;;;;;3.11;2.81;;;;;;;17.81;44.20;101834.78;;;;-52
2022/01/27 01:44:46;;;;;;;2.89;2.60;;;;;;;17.80;44.17;101834.48;;;;-53
2022/01/27 01:47:44;;;;;;;3.11;2.81;;;;;;;17.79;44.17;101835.44;;;;-51
2022/01/27 01:50:45;;;;;;;2.83;2.63;;;;;;;17.77;44.07;101831.48;;;;-50
2022/01/27 01:53:44;;;;;;;2.89;2.62;;;;;;;17.76;44.09;101834.51;;;;-51
2022/01/27 01:56:44;;;;;;;2.86;2.63;;;;;;;17.73;44.10;101830.30;;;;-50
2022/01/27 01:59:44;;;;;;;3.07;2.77;;;;;;;17.72;44.21;101831.41;;;;-51
2022/01/27 02:02:44;;;;;;;3.09;2.79;;;;;;;17.71;44.14;101830.13;;;;-50
2022/01/27 02:05:50;;;;;;;3.11;2.67;;;;;;;17.70;44.15;101830.72;;;;-50
2022/01/27 02:08:50;;;;;;;2.91;2.59;;;;;;;17.69;44.21;101830.14;;;;-50
2022/01/27 02:18:07;;;;;;;3.11;2.81;;;;;;;17.65;44.16;101847.02;;;;-51
2022/01/27 02:20:44;;;;;;;2.93;2.63;;;;;;;17.62;44.20;101839.72;;;;-51
2022/01/27 02:23:44;;;;;;;3.10;2.80;;;;;;;17.62;44.21;101845.11;;;;-50
2022/01/27 02:26:44;;;;;;;2.75;2.51;;;;;;;17.61;44.12;101845.91;;;;-51
2022/01/27 02:29:44;;;;;;;3.31;2.65;;;;;;;17.58;44.17;101841.28;;;;-51
2022/01/27 02:32:45;;;;;;;3.05;2.75;;;;;;;17.58;44.21;101847.34;;;;-51
2022/01/27 02:35:44;;;;;;;3.13;2.83;;;;;;;17.57;44.22;101846.24;;;;-50
2022/01/27 02:38:44;;;;;;;2.75;2.55;;;;;;;17.55;44.17;101841.15;;;;-51
2022/01/27 02:41:44;;;;;;;2.65;2.44;;;;;;;17.54;44.18;101837.56;;;;-50
2022/01/27 02:44:44;;;;;;;2.80;2.60;;;;;;;17.54;44.24;101839.75;;;;-51
2022/01/27 02:47:45;;;;;;;2.84;2.61;;;;;;;17.52;44.23;101844.63;;;;-50
2022/01/27 02:50:44;;;;;;;3.23;2.68;;;;;;;17.51;44.24;101844.73;;;;-51
2022/01/27 02:53:44;;;;;;;2.95;2.64;;;;;;;17.50;44.22;101837.08;;;;-50
2022/01/27 02:56:47;;;;;;;3.03;2.73;;;;;;;17.49;44.25;101823.33;;;;-51
2022/01/27 02:59:44;;;;;;;3.14;2.80;;;;;;;17.47;44.21;101818.95;;;;-51
2022/01/27 03:02:44;;;;;;;2.75;2.53;;;;;;;17.46;44.20;101810.92;;;;-48
2022/01/27 03:05:44;;;;;;;2.84;2.60;;;;;;;17.44;44.17;101814.26;;;;-48
2022/01/27 03:08:44;;;;;;;2.98;2.70;;;;;;;17.43;44.26;101808.48;;;;-48
2022/01/27 03:11:45;;;;;;;3.01;2.71;;;;;;;17.44;44.14;101807.52;;;;-48
2022/01/27 03:14:44;;;;;;;2.82;2.62;;;;;;;17.42;44.23;101799.34;;;;-48
2022/01/27 03:17:44;;;;;;;2.73;2.53;;;;;;;17.41;44.27;101787.81;;;;-48
2022/01/27 03:20:44;;;;;;;2.69;2.49;;;;;;;17.40;44.24;101785.58;;;;-48
2022/01/27 03:23:44;;;;;;;2.99;2.74;;;;;;;17.39;44.11;101780.81;;;;-48
2022/01/27 03:26:45;;;;;;;2.70;2.50;;;;;;;17.38;44.23;101773.91;;;;-48
2022/01/27 03:29:45;;;;;;;2.97;2.67;;;;;;;17.37;44.21;101773.41;;;;-48
2022/01/27 03:32:44;;;;;;;2.91;2.61;;;;;;;17.36;44.27;101770.52;;;;-48
2022/01/27 03:35:44;;;;;;;2.93;2.65;;;;;;;17.35;44.21;101767.82;;;;-47
2022/01/27 03:38:44;;;;;;;2.75;2.51;;;;;;;17.34;44.20;101772.80;;;;-48
2022/01/27 03:41:49;;;;;;;2.80;2.60;;;;;;;17.33;44.19;101772.70;;;;-48
2022/01/27 03:44:45;;;;;;;2.53;2.33;;;;;;;17.31;44.23;101775.05;;;;-48
2022/01/27 03:47:44;;;;;;;2.78;2.49;;;;;;;17.30;44.20;101770.22;;;;-48
2022/01/27 03:50:44;;;;;;;2.65;2.45;;;;;;;17.30;44.21;101776.13;;;;-51
2022/01/27 03:53:45;;;;;;;2.71;2.51;;;;;;;17.29;44.31;101777.73;;;;-51
2022/01/27 03:56:44;;;;;;;2.64;2.44;;;;;;;17.28;44.24;101783.52;;;;-51
2022/01/27 03:59:44;;;;;;;3.35;2.76;;;;;;;17.26;44.19;101784.29;;;;-50
2022/01/27 04:02:56;;;;;;;2.61;2.41;;;;;;;17.25;44.22;101771.52;;;;-50
2022/01/27 04:05:50;;;;;;;2.96;2.66;;;;;;;17.25;44.26;101770.45;;;;-50
2022/01/27 04:08:45;;;;;;;2.72;2.51;;;;;;;17.24;44.21;101771.25;;;;-50
2022/01/27 04:11:44;;;;;;;2.72;2.52;;;;;;;17.24;44.27;101777.44;;;;-51
2022/01/27 04:14:44;;;;;;;2.87;2.61;;;;;;;17.22;44.21;101781.18;;;;-50
2022/01/27 04:17:44;;;;;;;2.79;2.56;;;;;;;17.21;44.31;101775.09;;;;-50
2022/01/27 04:20:44;;;;;;;2.85;2.49;;;;;;;17.20;44.31;101769.03;;;;-50
2022/01/27 04:23:44;;;;;;;2.62;2.41;;;;;;;17.20;44.22;101764.58;;;;-50
2022/01/27 04:26:49;;;;;;;2.83;2.51;;;;;;;17.18;44.25;101750.81;;;;-50
2022/01/27 04:29:45;;;;;;;2.73;2.53;;;;;;;17.16;44.22;101754.19;;;;-51
2022/01/27 04:32:49;;;;;;;2.70;2.50;;;;;;;17.16;44.34;101755.23;;;;-51
2022/01/27 04:35:48;;;;;;;2.91;2.64;;;;;;;17.15;44.27;101748.78;;;;-51
2022/01/27 04:38:50;;;;;;;2.71;2.51;;;;;;;17.15;44.23;101741.89;;;;-50
2022/01/27 04:41:50;;;;;;;2.77;2.57;;;;;;;17.13;44.22;101738.09;;;;-50
2022/01/27 04:44:51;;;;;;;2.85;2.60;;;;;;;17.13;44.29;101744.56;;;;-50
2022/01/27 04:47:49;;;;;;;2.65;2.45;;;;;;;17.11;44.26;101751.87;;;;-51
2022/01/27 04:50:44;;;;;;;3.06;2.76;;;;;;;17.11;44.25;101762.15;;;;-50
2022/01/27 04:53:50;;;;;;;2.89;2.59;;;;;;;17.10;44.31;101768.05;;;;-50
2022/01/27 04:56:44;;;;;;;2.62;2.42;;;;;;;17.09;44.23;101776.17;;;;-50
2022/01/27 04:59:45;;;;;;;2.76;2.48;;;;;;;17.09;44.27;101774.70;;;;-51
2022/01/27 05:02:48;;;;;;;2.90;2.59;;;;;;;17.08;44.26;101770.57;;;;-48
2022/01/27 05:05:44;;;;;;;2.79;2.58;;;;;;;17.07;44.27;101762.33;;;;-48
2022/01/27 05:08:44;;;;;;;2.79;2.55;;;;;;;17.06;44.27;101763.77;;;;-48
2022/01/27 05:11:50;;;;;;;2.84;2.55;;;;;;;17.06;44.23;101772.59;;;;-47
2022/01/27 05:14:44;;;;;;;2.81;2.60;;;;;;;17.05;44.27;101777.73;;;;-48
2022/01/27 05:17:44;;;;;;;2.71;2.51;;;;;;;17.02;44.26;101782.41;;;;-48
2022/01/27 05:20:44;;;;;;;2.97;2.67;;;;;;;17.02;44.22;101787.83;;;;-47
2022/01/27 05:23:44;;;;;;;2.91;2.65;;;;;;;17.02;44.15;101780.86;;;;-48
2022/01/27 05:26:45;;;;;;;2.95;2.65;;;;;;;17.01;44.31;101784.20;;;;-48
2022/01/27 05:29:44;;;;;;;3.39;2.86;;;;;;;16.99;44.25;101784.88;;;;-50
2022/01/27 05:32:44;;;;;;;3.24;2.77;;;;;;;16.99;44.28;101790.22;;;;-50
2022/01/27 05:35:46;;;;;;;3.03;2.73;;;;;;;16.99;44.21;101787.45;;;;-50
2022/01/27 05:38:44;;;;;;;3.03;2.73;;;;;;;16.98;44.25;101782.74;;;;-50
2022/01/27 05:41:44;;;;;;;3.00;2.70;;;;;;;16.98;44.22;101785.17;;;;-50
2022/01/27 05:44:44;;;;;;;2.88;2.53;;;;;;;16.97;44.30;101776.70;;;;-50
2022/01/27 05:47:44;;;;;;;3.12;2.76;;;;;;;16.98;44.33;101773.82;;;;-50
2022/01/27 05:50:44;;;;;;;2.71;2.47;;;;;;;16.99;44.34;101774.17;;;;-51
2022/01/27 05:53:44;;;;;;;2.64;2.43;;;;;;;16.99;44.36;101775.87;;;;-50
2022/01/27 05:56:44;;;;;;;3.01;2.69;;;;;;;17.02;44.37;101777.79;;;;-50
2022/01/27 05:59:44;;;;;;;2.60;2.40;;;;;;;17.03;44.26;101772.14;;;;-50
2022/01/27 06:02:44;;;;;;;2.54;2.34;;;;;;;17.05;44.32;101761.03;;;;-50
2022/01/27 06:05:44;;;;;;;2.63;2.43;;;;;;;17.08;44.33;101752.66;;;;-50
2022/01/27 06:08:45;;;;;;;2.91;2.63;;;;;;;17.09;44.38;101754.72;;;;-50
2022/01/27 06:11:44;;;;;;;2.70;2.48;;;;;;;17.12;44.25;101761.23;;;;-50
2022/01/27 06:14:44;;;;;;;2.65;2.44;;;;;;;17.14;44.34;101760.88;;;;-50
2022/01/27 06:17:44;;;;;;;2.75;2.55;;;;;;;17.15;44.50;101763.77;;;;-50
2022/01/27 06:20:45;;;;;;;2.52;2.32;;;;;;;17.17;44.38;101763.93;;;;-50
2022/01/27 06:23:44;;;;;;;2.60;2.40;;;;;;;17.18;44.40;101764.27;;;;-50
2022/01/27 06:26:44;;;;;;;2.68;2.48;;;;;;;17.20;44.37;101776.56;;;;-50
2022/01/27 06:29:44;;;;;;;2.69;2.49;;;;;;;17.21;44.46;101780.27;;;;-50
2022/01/27 06:32:44;;;;;;;2.66;2.46;;;;;;;17.22;44.37;101776.64;;;;-50
2022/01/27 06:35:44;;;;;;;2.44;2.24;;;;;;;17.23;44.34;101775.97;;;;-50
2022/01/27 06:38:44;;;;;;;2.64;2.44;;;;;;;17.23;44.35;101767.63;;;;-50
2022/01/27 06:41:45;;;;;;;2.55;2.33;;;;;;;17.24;44.42;101768.54;;;;-52
2022/01/27 06:44:44;;;;;;;2.56;2.36;;;;;;;17.24;44.39;101765.94;;;;-52
2022/01/27 06:47:44;;;;;;;2.32;2.12;;;;;;;17.25;44.35;101765.18;;;;-50
2022/01/27 06:50:48;;;;;;;2.45;2.24;;;;;;;17.25;44.39;101770.13;;;;-51
2022/01/27 06:53:44;;;;;;;2.58;2.34;;;;;;;17.26;44.32;101777.35;;;;-51
2022/01/27 06:56:44;;;;;;;2.60;2.32;;;;;;;17.26;44.35;101774.28;;;;-51
2022/01/27 06:59:45;;;;;;;2.45;2.25;;;;;;;17.25;44.32;101782.78;;;;-51
2022/01/27 07:02:44;;;;;;;2.62;2.42;;;;;;;17.26;44.28;101787.73;;;;-50
2022/01/27 07:05:44;;;;;;;2.69;2.31;;;;;;;17.26;44.35;101788.78;;;;-50
2022/01/27 07:08:44;;;;;;;2.69;2.40;;;;;;;17.25;44.36;101782.13;;;;-50
2022/01/27 07:11:44;;;;;;;2.58;2.38;;;;;;;17.25;44.32;101783.34;;;;-50
2022/01/27 07:14:44;;;;;;;2.67;2.45;;;;;;;17.25;44.34;101780.91;;;;-50
2022/01/27 07:17:44;;;;;;;2.49;2.29;;;;;;;17.25;44.20;101783.66;;;;-50
2022/01/27 07:20:45;;;;;;;2.60;2.40;;;;;;;17.25;44.30;101782.28;;;;-52
2022/01/27 07:23:44;;;;;;;2.41;2.21;;;;;;;17.25;44.22;101786.08;;;;-48
2022/01/27 07:26:44;;;;;;;2.51;2.31;;;;;;;17.24;44.27;101778.05;;;;-51
2022/01/27 07:29:45;;;;;;;2.73;2.49;;;;;;;17.24;44.15;101772.06;;;;-50
2022/01/27 07:32:44;;;;;;;2.60;2.40;;;;;;;17.24;44.22;101770.80;;;;-47
2022/01/27 07:35:44;;;;;;;2.55;2.35;;;;;;;17.23;44.21;101769.41;;;;-48
2022/01/27 07:38:44;;;;;;;2.54;2.33;;;;;;;17.23;44.24;101768.27;;;;-48
2022/01/27 07:41:45;;;;;;;2.60;2.40;;;;;;;17.22;44.25;101765.54;;;;-48
2022/01/27 07:44:44;;;;;;;2.59;2.39;;;;;;;17.21;44.21;101762.61;;;;-47
2022/01/27 07:47:44;;;;;;;2.57;2.37;;;;;;;17.21;44.24;101755.56;;;;-48
2022/01/27 07:50:44;;;;;;;2.57;2.37;;;;;;;17.21;44.23;101751.91;;;;-48
2022/01/27 07:53:44;;;;;;;3.11;2.53;;;;;;;17.21;44.21;101755.31;;;;-47
2022/01/27 07:56:44;;;;;;;2.42;2.22;;;;;;;17.20;44.18;101756.55;;;;-48
2022/01/27 07:59:44;;;;;;;2.58;2.38;;;;;;;17.19;44.16;101745.44;;;;-52
2022/01/27 08:02:45;;;;;;;2.78;2.58;;;;;;;17.19;44.19;101740.41;;;;-53
2022/01/27 08:05:44;;;;;;;2.91;2.58;;;;;;;17.17;44.24;101735.58;;;;-50
2022/01/27 08:08:44;;;;;;;2.85;2.54;;;;;;;17.16;44.12;101731.19;;;;-50
2022/01/27 08:11:44;;;;;;;2.77;2.49;;;;;;;17.16;44.09;101728.02;;;;-50
2022/01/27 08:14:44;;;;;;;2.64;2.44;;;;;;;17.16;44.21;101725.51;;;;-50
2022/01/27 08:17:44;;;;;;;2.55;2.35;;;;;;;17.16;44.23;101726.52;;;;-50
2022/01/27 08:20:46;;;;;;;2.66;2.46;;;;;;;17.15;44.14;101727.88;;;;-50
2022/01/27 08:23:45;;;;;;;14.03;3.58;;;;;;;17.10;43.67;101725.89;;;;-51
2022/01/27 08:26:46;;;;;;;8.76;6.05;;;;;;;16.95;41.93;101726.25;;;;-51
2022/01/27 08:29:50;;;;;;;7.03;5.73;;;;;;;16.98;42.74;101727.75;;;;-52
2022/01/27 08:32:50;;;;;;;8.29;4.69;;;;;;;16.99;42.94;101722.84;;;;-52
2022/01/27 08:35:44;;;;;;;6.25;4.22;;;;;;;17.01;43.12;101716.02;;;;-53
2022/01/27 08:38:44;;;;;;;5.22;4.16;;;;;;;17.04;43.26;101717.11;;;;-48
2022/01/27 08:41:44;;;;;;;4.52;3.87;;;;;;;17.06;43.44;101711.37;;;;-50
2022/01/27 08:44:44;;;;;;;4.53;3.62;;;;;;;17.09;43.52;101709.42;;;;-50
2022/01/27 08:47:44;;;;;;;5.02;3.67;;;;;;;17.11;43.74;101706.58;;;;-50
2022/01/27 08:50:50;;;;;;;4.35;3.49;;;;;;;17.13;43.73;101711.20;;;;-50
2022/01/27 08:53:44;;;;;;;3.51;3.13;;;;;;;17.16;43.67;101704.80;;;;-50
2022/01/27 08:56:44;;;;;;;3.74;3.11;;;;;;;17.18;43.77;101704.00;;;;-50
2022/01/27 08:59:45;;;;;;;5.43;3.13;;;;;;;17.21;43.71;101705.48;;;;-51
2022/01/27 09:02:44;;;;;;;3.39;3.00;;;;;;;17.22;43.74;101707.50;;;;-51
2022/01/27 09:05:45;;;;;;;3.93;2.98;;;;;;;17.24;43.84;101702.55;;;;-51
2022/01/27 09:08:44;;;;;;;3.25;2.95;;;;;;;17.26;43.75;101705.42;;;;-51
2022/01/27 09:11:46;;;;;;;3.35;2.78;;;;;;;17.27;43.80;101699.31;;;;-51
2022/01/27 09:14:44;;;;;;;3.31;2.91;;;;;;;17.28;43.78;101708.34;;;;-51
2022/01/27 09:20:45;;;;;;;3.83;2.58;;;;;;;17.31;43.89;101701.77;;;;-52
2022/01/27 09:23:44;;;;;;;6.14;2.95;;;;;;;17.35;44.22;101701.42;;;;-50
2022/01/27 09:26:51;;;;;;;4.73;2.74;;;;;;;17.37;44.66;101697.40;;;;-51
2022/01/27 09:29:44;;;;;;;2.96;2.66;;;;;;;17.40;44.60;101697.81;;;;-52
2022/01/27 09:32:44;;;;;;;4.55;2.67;;;;;;;17.42;44.60;101706.08;;;;-57
2022/01/27 09:35:44;;;;;;;3.63;2.76;;;;;;;17.45;44.60;101708.70;;;;-58
2022/01/27 09:38:44;;;;;;;3.12;2.65;;;;;;;17.48;44.62;101705.48;;;;-58
2022/01/27 09:41:44;;;;;;;3.22;2.60;;;;;;;17.52;44.88;101701.48;;;;-59
2022/01/27 09:44:51;;;;;;;3.04;2.67;;;;;;;17.57;44.79;101697.58;;;;-61
2022/01/27 09:47:52;;;;;;;3.61;2.69;;;;;;;17.61;44.83;101698.19;;;;-51
2022/01/27 09:51:10;;;;;;;3.11;2.76;;;;;;;17.67;44.88;101696.78;;;;-54
2022/01/27 09:53:44;;;;;;;4.56;2.70;;;;;;;17.71;44.83;101703.66;;;;-50
2022/01/27 09:56:44;;;;;;;3.20;2.71;;;;;;;17.76;44.90;101701.45;;;;-51
2022/01/27 09:59:44;;;;;;;2.95;2.51;;;;;;;17.80;44.81;101704.27;;;;-54
2022/01/27 10:02:44;;;;;;;2.89;2.49;;;;;;;17.85;44.75;101708.22;;;;-51
2022/01/27 10:05:44;;;;;;;2.63;2.39;;;;;;;17.91;44.75;101709.95;;;;-51
2022/01/27 10:08:44;;;;;;;2.86;2.50;;;;;;;17.96;44.77;101710.19;;;;-58
2022/01/27 10:11:46;;;;;;;2.56;2.36;;;;;;;18.03;44.84;101709.02;;;;-58
2022/01/27 10:14:44;;;;;;;3.05;2.32;;;;;;;18.07;44.80;101695.67;;;;-53
2022/01/27 10:17:44;;;;;;;3.05;2.34;;;;;;;18.11;44.78;101698.24;;;;-55
2022/01/27 10:20:44;;;;;;;3.19;2.31;;;;;;;18.16;44.78;101698.11;;;;-51
2022/01/27 10:23:46;;;;;;;2.48;2.28;;;;;;;18.22;44.75;101694.97;;;;-58
2022/01/27 10:26:51;;;;;;;3.81;2.39;;;;;;;18.26;44.72;101697.20;;;;-51
2022/01/27 10:30:00;;;;;;;6.89;2.25;;;;;;;18.33;44.66;101690.18;;;;-57
2022/01/27 10:32:44;;;;;;;2.88;2.31;;;;;;;18.36;44.77;101690.26;;;;-57
2022/01/27 10:35:44;;;;;;;4.99;2.45;;;;;;;18.40;44.79;101680.16;;;;-51
2022/01/27 10:38:44;;;;;;;3.77;2.31;;;;;;;18.43;44.75;101677.59;;;;-50
2022/01/27 10:41:44;;;;;;;3.19;2.33;;;;;;;18.47;44.70;101668.45;;;;-56
2022/01/27 10:44:47;;;;;;;4.55;2.43;;;;;;;18.51;44.41;101678.24;;;;-58
2022/01/27 10:47:45;;;;;;;3.89;2.45;;;;;;;18.52;44.58;101666.72;;;;-60
2022/01/27 10:50:50;;;;;;;3.39;2.41;;;;;;;18.55;44.54;101670.08;;;;-56
2022/01/27 10:53:45;;;;;;;3.61;2.24;;;;;;;18.60;44.70;101665.59;;;;-53
2022/01/27 10:56:44;;;;;;;4.49;2.48;;;;;;;18.65;44.79;101661.98;;;;-57
2022/01/27 10:59:48;;;;;;;3.53;2.63;;;;;;;18.68;44.97;101665.01;;;;-46
2022/01/27 11:02:44;;;;;;;5.84;2.32;;;;;;;18.75;44.91;101663.16;;;;-45
2022/01/27 11:05:45;;;;;;;4.14;2.66;;;;;;;18.79;44.67;101663.72;;;;-57
2022/01/27 11:08:44;;;;;;;4.67;2.34;;;;;;;18.82;44.64;101660.14;;;;-56
2022/01/27 11:11:45;;;;;;;3.10;2.39;;;;;;;18.85;44.52;101653.83;;;;-52
2022/01/27 11:14:47;;;;;;;5.12;2.47;;;;;;;18.88;44.44;101648.89;;;;-54
2022/01/27 11:17:45;;;;;;;2.51;2.30;;;;;;;18.92;44.41;101645.31;;;;-53
2022/01/27 11:20:55;;;;;;;4.61;2.52;;;;;;;18.96;44.36;101654.77;;;;-53
2022/01/27 11:24:00;;;;;;;4.03;2.37;;;;;;;18.97;44.34;101645.15;;;;-56
2022/01/27 11:26:44;;;;;;;2.89;2.53;;;;;;;18.98;44.33;101636.70;;;;-58
2022/01/27 11:29:44;;;;;;;4.85;2.41;;;;;;;19.03;44.33;101633.20;;;;-54
2022/01/27 11:32:44;;;;;;;3.77;2.32;;;;;;;19.04;44.21;101639.14;;;;-48
2022/01/27 11:35:44;;;;;;;2.90;2.37;;;;;;;19.04;44.15;101641.99;;;;-49
2022/01/27 11:38:46;;;;;;;3.42;2.71;;;;;;;19.05;44.14;101637.89;;;;-57
2022/01/27 11:41:45;;;;;;;2.55;2.31;;;;;;;19.09;44.22;101633.50;;;;-59
2022/01/27 11:44:45;;;;;;;3.83;2.98;;;;;;;19.10;44.13;101619.97;;;;-58
2022/01/27 11:47:44;;;;;;;3.79;2.67;;;;;;;19.12;44.17;101624.33;;;;-59
2022/01/27 11:50:55;;;;;;;4.99;2.83;;;;;;;19.13;44.04;101624.26;;;;-59
2022/01/27 11:53:45;;;;;;;6.57;2.89;;;;;;;19.16;43.77;101626.47;;;;-55
2022/01/27 11:56:44;;;;;;;3.48;2.57;;;;;;;19.16;43.84;101623.47;;;;-54
2022/01/27 11:59:44;;;;;;;3.58;2.49;;;;;;;19.16;43.72;101632.08;;;;-53
2022/01/27 12:02:44;;;;;;;3.38;2.50;;;;;;;19.15;43.75;101622.12;;;;-49
2022/01/27 12:05:46;;;;;;;2.87;2.46;;;;;;;19.15;43.73;101615.12;;;;-49
2022/01/27 12:08:44;;;;;;;2.94;2.46;;;;;;;19.16;43.78;101612.08;;;;-49
2022/01/27 12:11:47;;;;;;;2.77;2.49;;;;;;;19.16;43.69;101611.59;;;;-54
2022/01/27 12:14:47;;;;;;;3.01;2.39;;;;;;;19.17;43.71;101604.91;;;;-58
2022/01/27 12:17:44;;;;;;;3.26;2.51;;;;;;;19.19;43.67;101598.25;;;;-56
2022/01/27 12:20:44;;;;;;;2.96;2.60;;;;;;;19.19;43.67;101602.56;;;;-56
2022/01/27 12:23:44;;;;;;;2.99;2.67;;;;;;;19.20;43.61;101585.38;;;;-56
2022/01/27 12:26:44;;;;;;;2.93;2.41;;;;;;;19.21;43.63;101567.50;;;;-51
2022/01/27 12:29:44;;;;;;;2.89;2.50;;;;;;;19.22;43.63;101546.91;;;;-55
2022/01/27 12:32:45;;;;;;;3.53;2.39;;;;;;;19.23;43.62;101533.58;;;;-49
2022/01/27 12:35:44;;;;;;;2.95;2.49;;;;;;;19.24;43.55;101536.96;;;;-49
2022/01/27 12:38:44;;;;;;;2.84;2.50;;;;;;;19.25;43.54;101573.05;;;;-55
2022/01/27 12:41:46;;;;;;;2.88;2.51;;;;;;;19.28;43.56;101572.30;;;;-49
2022/01/27 12:44:44;;;;;;;3.13;2.44;;;;;;;19.28;43.55;101565.42;;;;-57
2022/01/27 12:47:44;;;;;;;2.68;2.43;;;;;;;19.30;43.51;101550.19;;;;-56
2022/01/27 12:50:46;;;;;;;3.05;2.60;;;;;;;19.32;43.49;101540.09;;;;-54
2022/01/27 12:53:44;;;;;;;4.85;2.53;;;;;;;19.33;43.48;101547.32;;;;-56
2022/01/27 12:56:44;;;;;;;4.57;2.45;;;;;;;19.34;43.47;101540.59;;;;-56
2022/01/27 12:59:44;;;;;;;2.99;2.60;;;;;;;19.35;43.49;101542.01;;;;-57
2022/01/27 13:02:44;;;;;;;2.62;2.42;;;;;;;19.36;43.48;101533.56;;;;-57
2022/01/27 13:05:44;;;;;;;2.84;2.56;;;;;;;19.36;43.45;101519.78;;;;-56
2022/01/27 13:08:45;;;;;;;2.96;2.57;;;;;;;19.37;43.46;101503.37;;;;-56
2022/01/27 13:11:46;;;;;;;2.95;2.67;;;;;;;19.38;43.41;101494.30;;;;-49
2022/01/27 13:14:44;;;;;;;3.68;2.54;;;;;;;19.38;43.45;101491.02;;;;-53
2022/01/27 13:17:48;;;;;;;2.69;2.42;;;;;;;19.39;43.47;101494.64;;;;-49
2022/01/27 13:20:48;;;;;;;2.85;2.49;;;;;;;19.40;43.43;101497.60;;;;-50
2022/01/27 13:23:47;;;;;;;3.43;2.53;;;;;;;19.46;43.52;101496.81;;;;-53
2022/01/27 13:26:46;;;;;;;3.45;2.70;;;;;;;19.47;43.61;101490.92;;;;-50
2022/01/27 13:29:44;;;;;;;4.48;2.69;;;;;;;19.49;43.67;101480.48;;;;-51
2022/01/27 13:32:44;;;;;;;3.80;2.99;;;;;;;19.53;43.56;101476.55;;;;-54
2022/01/27 13:35:44;;;;;;;3.27;2.71;;;;;;;19.54;43.52;101479.28;;;;-56
2022/01/27 13:38:59;;;;;;;4.07;2.75;;;;;;;19.58;43.51;101471.81;;;;-57
2022/01/27 13:41:44;;;;;;;5.11;2.83;;;;;;;19.61;43.63;101463.64;;;;-54
2022/01/27 13:44:44;;;;;;;3.21;2.88;;;;;;;19.62;43.67;101465.06;;;;-57
2022/01/27 13:47:44;;;;;;;3.33;2.88;;;;;;;19.63;43.55;101463.81;;;;-57
2022/01/27 13:50:44;;;;;;;3.01;2.71;;;;;;;19.67;43.54;101467.36;;;;-56
2022/01/27 13:53:44;;;;;;;3.41;2.89;;;;;;;19.69;43.60;101462.84;;;;-51
2022/01/27 13:56:44;;;;;;;3.47;2.91;;;;;;;19.69;43.60;101463.45;;;;-54
2022/01/27 13:59:44;;;;;;;3.27;2.83;;;;;;;19.72;43.64;101467.76;;;;-53
2022/01/27 14:02:45;;;;;;;3.77;2.75;;;;;;;19.72;43.53;101472.23;;;;-51
2022/01/27 14:05:44;;;;;;;3.03;2.73;;;;;;;19.74;43.58;101473.58;;;;-59
2022/01/27 14:08:45;;;;;;;4.04;2.89;;;;;;;19.76;43.53;101486.72;;;;-52
2022/01/27 14:11:44;;;;;;;3.24;2.91;;;;;;;19.77;43.46;101492.26;;;;-53
2022/01/27 14:14:44;;;;;;;3.63;3.17;;;;;;;19.77;43.42;101492.74;;;;-59
2022/01/27 14:17:44;;;;;;;4.93;3.59;;;;;;;19.77;43.08;101486.56;;;;-61
2022/01/27 14:20:44;;;;;;;4.24;3.29;;;;;;;19.81;43.27;101484.70;;;;-60
2022/01/27 14:23:47;;;;;;;4.83;3.00;;;;;;;19.82;43.33;101481.31;;;;-61
2022/01/27 14:26:44;;;;;;;5.17;3.17;;;;;;;19.87;43.38;101489.14;;;;-54
2022/01/27 14:29:44;;;;;;;5.89;3.39;;;;;;;19.87;43.33;101497.68;;;;-54
2022/01/27 14:32:44;;;;;;;5.79;3.38;;;;;;;19.87;43.25;101487.51;;;;-60
2022/01/27 14:35:44;;;;;;;7.38;3.17;;;;;;;19.86;43.32;101483.11;;;;-51
2022/01/27 14:38:44;;;;;;;4.71;3.23;;;;;;;19.87;43.31;101476.77;;;;-54
2022/01/27 14:41:44;;;;;;;4.43;3.13;;;;;;;19.88;43.37;101465.50;;;;-59
2022/01/27 14:44:44;;;;;;;4.06;3.05;;;;;;;19.88;43.38;101455.91;;;;-60
2022/01/27 14:47:44;;;;;;;5.12;3.64;;;;;;;19.91;43.13;101453.18;;;;-61
2022/01/27 14:50:44;;;;;;;5.29;3.39;;;;;;;19.90;43.12;101460.91;;;;-54
2022/01/27 14:53:44;;;;;;;4.65;3.39;;;;;;;19.93;43.20;101466.81;;;;-53
2022/01/27 14:56:44;;;;;;;5.02;3.15;;;;;;;19.94;43.24;101463.41;;;;-56
2022/01/27 14:59:44;;;;;;;4.96;3.33;;;;;;;19.97;43.28;101476.50;;;;-51
2022/01/27 15:02:44;;;;;;;4.20;3.15;;;;;;;19.96;43.29;101475.89;;;;-59
2022/01/27 15:05:44;;;;;;;3.96;3.09;;;;;;;19.98;43.28;101462.42;;;;-50
2022/01/27 15:08:44;;;;;;;4.25;3.11;;;;;;;20.00;43.38;101465.56;;;;-58
2022/01/27 15:11:44;;;;;;;3.75;2.96;;;;;;;20.00;43.38;101469.95;;;;-58
2022/01/27 15:20:45;;;;;;;3.91;3.31;;;;;;;20.05;43.42;101460.55;;;;-56
2022/01/27 15:23:44;;;;;;;3.93;3.14;;;;;;;20.05;43.46;101472.52;;;;-60
2022/01/27 15:26:44;;;;;;;7.47;3.18;;;;;;;20.08;43.39;101473.13;;;;-51
2022/01/27 15:29:44;;;;;;;3.11;2.81;;;;;;;20.09;43.34;101475.04;;;;-51
2022/01/27 15:32:44;;;;;;;3.17;2.83;;;;;;;20.11;43.37;101476.63;;;;-52
2022/01/27 15:35:44;;;;;;;4.49;3.01;;;;;;;20.12;43.21;101464.09;;;;-52
2022/01/27 15:38:44;;;;;;;4.00;3.09;;;;;;;20.10;43.17;101463.66;;;;-55
2022/01/27 15:41:48;;;;;;;5.31;3.19;;;;;;;20.10;43.06;101469.27;;;;-56
2022/01/27 15:44:44;;;;;;;4.15;3.60;;;;;;;20.07;42.77;101453.03;;;;-57
2022/01/27 15:47:44;;;;;;;4.54;3.67;;;;;;;20.08;42.80;101454.58;;;;-58
2022/01/27 15:50:44;;;;;;;4.11;3.47;;;;;;;20.08;42.78;101461.98;;;;-55
2022/01/27 15:53:44;;;;;;;4.01;3.36;;;;;;;20.08;42.65;101468.00;;;;-54
2022/01/27 15:56:44;;;;;;;4.22;3.76;;;;;;;20.07;42.56;101458.48;;;;-54
2022/01/27 15:59:49;;;;;;;4.05;3.63;;;;;;;20.07;42.54;101450.66;;;;-53
2022/01/27 16:02:45;;;;;;;4.29;3.75;;;;;;;20.07;42.32;101440.91;;;;-54
2022/01/27 16:05:44;;;;;;;4.57;3.80;;;;;;;20.08;42.43;101444.97;;;;-58
2022/01/27 16:08:44;;;;;;;4.21;3.62;;;;;;;20.08;42.25;101447.73;;;;-54
2022/01/27 16:11:44;;;;;;;4.61;3.84;;;;;;;20.09;42.31;101449.73;;;;-58
2022/01/27 16:14:48;;;;;;;4.47;3.55;;;;;;;20.09;42.26;101450.46;;;;-52
2022/01/27 16:17:44;;;;;;;4.09;3.69;;;;;;;20.09;42.37;101456.00;;;;-54
2022/01/27 16:20:46;;;;;;;4.55;3.76;;;;;;;20.09;42.25;101448.67;;;;-54
2022/01/27 16:23:44;;;;;;;5.16;4.31;;;;;;;20.10;42.19;101449.24;;;;-53
2022/01/27 16:26:44;;;;;;;4.58;3.99;;;;;;;20.11;42.08;101454.70;;;;-52
2022/01/27 16:29:44;;;;;;;4.97;4.06;;;;;;;20.09;41.69;101451.68;;;;-54
2022/01/27 16:32:44;;;;;;;4.41;3.82;;;;;;;20.08;41.81;101454.09;;;;-53
2022/01/27 16:35:44;;;;;;;4.91;3.98;;;;;;;20.09;41.88;101452.41;;;;-52
2022/01/27 16:38:44;;;;;;;8.09;3.89;;;;;;;20.10;41.89;101452.17;;;;-54
2022/01/27 16:41:44;;;;;;;7.10;4.19;;;;;;;20.10;41.65;101461.61;;;;-54
2022/01/27 16:44:44;;;;;;;5.42;4.15;;;;;;;20.08;41.09;101462.80;;;;-55
2022/01/27 16:47:44;;;;;;;9.29;4.13;;;;;;;20.07;41.56;101463.28;;;;-57
2022/01/27 16:50:44;;;;;;;7.20;4.00;;;;;;;20.05;41.37;101463.65;;;;-57
2022/01/27 16:53:44;;;;;;;8.70;4.15;;;;;;;20.05;41.75;101474.80;;;;-61
2022/01/27 16:56:44;;;;;;;5.84;3.84;;;;;;;20.08;41.87;101478.34;;;;-52
2022/01/27 16:59:45;;;;;;;5.37;3.81;;;;;;;20.11;41.89;101487.25;;;;-59
2022/01/27 17:02:44;;;;;;;6.24;3.89;;;;;;;20.12;41.95;101485.34;;;;-60
2022/01/27 17:05:44;;;;;;;7.11;3.94;;;;;;;20.14;42.12;101493.36;;;;-61